createdAt,value
2022-09-25T00:00:49.594Z,100219.44
2022-09-25T00:03:19.755Z,100224.84
2022-09-25T00:05:48.496Z,100225.25
2022-09-25T00:08:17.323Z,100227.31
2022-09-25T00:10:47.340Z,100230.63
2022-09-25T00:13:15.913Z,100224.66
2022-09-25T00:15:47.994Z,100226.31
2022-09-25T00:18:16.185Z,100221.16
2022-09-25T00:20:44.143Z,100218.47
2022-09-25T00:23:11.753Z,100220.13
2022-09-25T00:25:39.591Z,100220.75
2022-09-25T00:28:07.172Z,100216.53
2022-09-25T00:30:34.871Z,100218.78
2022-09-25T00:33:02.422Z,100211.31
2022-09-25T00:35:30.033Z,100218.06
2022-09-25T00:37:58.983Z,100214.28
2022-09-25T00:40:26.683Z,100213.47
2022-09-25T00:42:54.264Z,100213.66
2022-09-25T00:45:24.171Z,100211.16
2022-09-25T00:48:00.990Z,100207.50
2022-09-25T00:50:35.086Z,100213.84
2022-09-25T00:53:09.323Z,100210.88
2022-09-25T00:55:40.691Z,100206.94
2022-09-25T00:58:09.285Z,100200.19
2022-09-25T01:00:36.955Z,100205.94
2022-09-25T01:03:06.356Z,100199.59
2022-09-25T01:05:37.660Z,100203.69
2022-09-25T01:08:10.108Z,100197.28
2022-09-25T01:10:37.806Z,100197.84
2022-09-25T01:13:06.352Z,100195.63
2022-09-25T01:15:40.506Z,100191.56
2022-09-25T01:18:20.862Z,100199.59
2022-09-25T01:21:06.275Z,100191.94
2022-09-25T01:23:56.805Z,100197.63
2022-09-25T01:26:49.784Z,100192.38
2022-09-25T01:29:23.549Z,100191.34
2022-09-25T01:32:03.125Z,100191.94
2022-09-25T01:34:40.642Z,100186.59
2022-09-25T01:37:22.206Z,100187.59
2022-09-25T01:39:57.805Z,100183.25
2022-09-25T01:42:31.152Z,100195.44
2022-09-25T01:45:05.893Z,100191.94
2022-09-25T01:47:38.400Z,100185.56
2022-09-25T01:50:10.698Z,100188.53
2022-09-25T01:52:41.920Z,100182.72
2022-09-25T01:55:25.104Z,100179.44
2022-09-25T01:57:58.017Z,100178.84
2022-09-25T02:00:27.742Z,100174.53
2022-09-25T02:02:58.367Z,100185.78
2022-09-25T02:05:31.127Z,100177.78
2022-09-25T02:08:03.041Z,100180.88
2022-09-25T02:10:35.382Z,100185.03
2022-09-25T02:13:08.691Z,100184.03
2022-09-25T02:15:41.584Z,100176.47
2022-09-25T02:18:30.465Z,100172.03
2022-09-25T02:21:06.863Z,100176.38
2022-09-25T02:23:46.601Z,100172.50
2022-09-25T02:26:21.939Z,100185.22
2022-09-25T02:28:53.701Z,100179.44
2022-09-25T02:31:24.156Z,100183.56
2022-09-25T02:33:52.095Z,100178.50
2022-09-25T02:36:22.076Z,100186.50
2022-09-25T02:38:51.519Z,100185.88
2022-09-25T02:41:32.972Z,100190.19
2022-09-25T02:44:12.216Z,100185.69
2022-09-25T02:46:51.678Z,100191.38
2022-09-25T02:49:26.812Z,100184.03
2022-09-25T02:52:05.456Z,100184.28
2022-09-25T02:54:39.685Z,100184.56
2022-09-25T02:57:14.492Z,100185.41
2022-09-25T02:59:46.771Z,100187.44
2022-09-25T03:02:17.398Z,100184.78
2022-09-25T03:04:48.159Z,100183.13
2022-09-25T03:07:17.686Z,100187.13
2022-09-25T03:09:46.874Z,100185.88
2022-09-25T03:12:15.647Z,100188.53
2022-09-25T03:14:43.368Z,100180.25
2022-09-25T03:17:12.517Z,100184.84
2022-09-25T03:19:41.487Z,100186.81
2022-09-25T03:22:09.098Z,100180.44
2022-09-25T03:24:37.565Z,100183.13
2022-09-25T03:27:05.223Z,100180.59
2022-09-25T03:29:33.714Z,100184.78
2022-09-25T03:32:01.597Z,100184.78
2022-09-25T03:34:29.311Z,100183.25
2022-09-25T03:36:58.334Z,100182.19
2022-09-25T03:39:25.898Z,100173.69
2022-09-25T03:41:53.463Z,100182.38
2022-09-25T03:44:21.101Z,100175.53
2022-09-25T03:46:48.660Z,100176.56
2022-09-25T03:49:16.292Z,100173.13
2022-09-25T03:51:43.896Z,100177.09
2022-09-25T03:54:12.888Z,100179.22
2022-09-25T03:56:40.631Z,100172.75
2022-09-25T03:59:08.404Z,100178.09
2022-09-25T04:01:36.961Z,100176.91
2022-09-25T04:04:04.729Z,100168.00
2022-09-25T04:06:32.551Z,100169.53
2022-09-25T04:09:00.217Z,100168.16
2022-09-25T04:11:29.241Z,100168.16
2022-09-25T04:13:56.978Z,100159.50
2022-09-25T04:16:24.589Z,100167.53
2022-09-25T04:18:52.298Z,100171.97
2022-09-25T04:21:20.044Z,100168.00
2022-09-25T04:24:07.611Z,100167.81
2022-09-25T04:26:36.815Z,100162.66
2022-09-25T04:29:05.435Z,100169.41
2022-09-25T04:31:33.379Z,100168.00
2022-09-25T04:34:03.070Z,100170.78
2022-09-25T04:36:30.724Z,100168.91
2022-09-25T04:38:58.293Z,100173.22
2022-09-25T04:41:25.979Z,100167.72
2022-09-25T04:43:54.913Z,100172.13
2022-09-25T04:46:23.060Z,100165.09
2022-09-25T04:48:51.435Z,100178.47
2022-09-25T04:51:19.132Z,100172.13
2022-09-25T04:53:47.213Z,100178.84
2022-09-25T04:56:16.384Z,100171.84
2022-09-25T04:58:45.985Z,100177.19
2022-09-25T05:01:15.316Z,100171.22
2022-09-25T05:03:43.253Z,100172.63
2022-09-25T05:06:11.065Z,100174.63
2022-09-25T05:08:38.656Z,100176.91
2022-09-25T05:11:07.868Z,100183.91
2022-09-25T05:13:35.488Z,100180.06
2022-09-25T05:16:03.416Z,100179.69
2022-09-25T05:18:32.432Z,100171.84
2022-09-25T05:21:04.747Z,100174.25
2022-09-25T05:23:32.381Z,100173.44
2022-09-25T05:26:02.424Z,100173.88
2022-09-25T05:28:30.720Z,100173.22
2022-09-25T05:31:00.121Z,100180.63
2022-09-25T05:33:27.714Z,100180.63
2022-09-25T05:35:56.697Z,100170.94
2022-09-25T05:38:24.294Z,100171.97
2022-09-25T05:40:52.559Z,100174.81
2022-09-25T05:43:20.475Z,100178.50
2022-09-25T05:45:54.705Z,100183.66
2022-09-25T05:48:22.476Z,100178.31
2022-09-25T05:50:52.493Z,100177.31
2022-09-25T05:53:21.487Z,100184.50
2022-09-25T05:55:51.935Z,100177.66
2022-09-25T05:58:19.904Z,100180.16
2022-09-25T06:00:47.758Z,100186.81
2022-09-25T06:03:16.357Z,100184.22
2022-09-25T06:05:45.092Z,100186.69
2022-09-25T06:08:13.387Z,100187.31
2022-09-25T06:10:43.086Z,100184.22
2022-09-25T06:13:10.685Z,100189.16
2022-09-25T06:15:41.893Z,100187.72
2022-09-25T06:18:10.274Z,100189.91
2022-09-25T06:20:37.911Z,100193.59
2022-09-25T06:23:05.505Z,100193.88
2022-09-25T06:25:33.542Z,100190.56
2022-09-25T06:28:03.120Z,100193.88
2022-09-25T06:30:34.465Z,100197.81
2022-09-25T06:33:02.838Z,100194.44
2022-09-25T06:35:31.093Z,100203.47
2022-09-25T06:37:59.591Z,100195.97
2022-09-25T06:40:28.322Z,100198.31
2022-09-25T06:42:59.281Z,100200.22
2022-09-25T06:45:30.068Z,100193.06
2022-09-25T06:48:01.871Z,100196.38
2022-09-25T06:50:33.112Z,100201.72
2022-09-25T06:53:00.712Z,100198.03
2022-09-25T06:55:28.897Z,100199.03
2022-09-25T06:57:56.490Z,100194.34
2022-09-25T07:00:24.048Z,100194.78
2022-09-25T07:03:10.771Z,100193.66
2022-09-25T07:05:38.484Z,100197.44
2022-09-25T07:08:06.169Z,100200.72
2022-09-25T07:10:33.714Z,100203.69
2022-09-25T07:13:01.712Z,100200.81
2022-09-25T07:15:29.391Z,100195.84
2022-09-25T07:17:58.885Z,100203.69
2022-09-25T07:20:26.449Z,100202.28
2022-09-25T07:22:54.819Z,100203.28
2022-09-25T07:25:22.500Z,100200.59
2022-09-25T07:27:50.073Z,100202.91
2022-09-25T07:30:17.916Z,100203.94
2022-09-25T07:32:45.799Z,100197.94
2022-09-25T07:35:14.773Z,100209.66
2022-09-25T07:37:42.328Z,100209.66
2022-09-25T07:40:14.552Z,100209.03
2022-09-25T07:42:42.685Z,100205.59
2022-09-25T07:45:11.707Z,100210.28
2022-09-25T07:47:39.350Z,100203.75
2022-09-25T07:50:10.893Z,100209.56
2022-09-25T07:52:42.292Z,100211.66
2022-09-25T07:55:10.712Z,100207.59
2022-09-25T07:57:38.270Z,100205.09
2022-09-25T08:00:06.936Z,100204.69
2022-09-25T08:02:35.191Z,100205.75
2022-09-25T08:05:02.944Z,100208.16
2022-09-25T08:07:30.737Z,100216.63
2022-09-25T08:09:59.691Z,100209.16
2022-09-25T08:12:27.802Z,100210.81
2022-09-25T08:14:55.431Z,100209.22
2022-09-25T08:17:23.516Z,100207.19
2022-09-25T08:19:51.102Z,100215.81
2022-09-25T08:22:18.713Z,100214.13
2022-09-25T08:24:46.306Z,100206.47
2022-09-25T08:27:15.221Z,100211.28
2022-09-25T08:29:42.799Z,100217.06
2022-09-25T08:32:10.370Z,100216.69
2022-09-25T08:34:41.979Z,100205.03
2022-09-25T08:37:10.273Z,100212.69
2022-09-25T08:39:38.288Z,100213.94
2022-09-25T08:42:06.502Z,100210.25
2022-09-25T08:44:38.305Z,100209.06
2022-09-25T08:47:31.605Z,100212.38
2022-09-25T08:50:03.900Z,100206.63
2022-09-25T08:52:32.368Z,100209.63
2022-09-25T08:55:00.045Z,100210.44
2022-09-25T08:57:35.027Z,100210.13
2022-09-25T09:00:08.996Z,100211.22
2022-09-25T09:02:43.753Z,100208.66
2022-09-25T09:05:18.324Z,100215.22
2022-09-25T09:07:53.169Z,100217.25
2022-09-25T09:10:31.926Z,100216.44
2022-09-25T09:13:06.562Z,100212.09
2022-09-25T09:15:43.885Z,100213.75
2022-09-25T09:18:22.311Z,100216.44
2022-09-25T09:20:53.577Z,100217.91
2022-09-25T09:23:23.566Z,100218.28
2022-09-25T09:26:00.953Z,100224.25
2022-09-25T09:28:55.739Z,100221.97
2022-09-25T09:31:31.335Z,100219.09
2022-09-25T09:34:09.966Z,100218.97
2022-09-25T09:36:49.466Z,100222.31
2022-09-25T09:39:25.072Z,100216.19
2022-09-25T09:42:02.644Z,100218.66
2022-09-25T09:44:44.104Z,100216.63
2022-09-25T09:47:30.602Z,100214.34
2022-09-25T09:50:07.687Z,100209.00
2022-09-25T09:52:40.208Z,100214.13
2022-09-25T09:55:20.772Z,100214.56
2022-09-25T09:57:51.889Z,100212.13
2022-09-25T10:00:22.767Z,100220.13
2022-09-25T10:02:55.441Z,100225.69
2022-09-25T10:05:27.535Z,100218.09
2022-09-25T10:07:55.823Z,100219.94
2022-09-25T10:10:30.606Z,100215.44
2022-09-25T10:13:06.211Z,100214.63
2022-09-25T10:15:38.320Z,100208.53
2022-09-25T10:18:08.727Z,100206.31
2022-09-25T10:20:41.750Z,100204.09
2022-09-25T10:23:22.932Z,100203.72
2022-09-25T10:25:55.761Z,100198.78
2022-09-25T10:28:28.551Z,100193.38
2022-09-25T10:30:57.195Z,100190.47
2022-09-25T10:33:28.423Z,100192.50
2022-09-25T10:35:56.192Z,100192.91
2022-09-25T10:38:35.312Z,100200.31
2022-09-25T10:41:07.426Z,100200.69
2022-09-25T10:43:35.457Z,100196.72
2022-09-25T10:46:08.984Z,100196.53
2022-09-25T10:48:56.755Z,100204.38
2022-09-25T10:51:25.626Z,100203.97
2022-09-25T10:53:57.324Z,100199.81
2022-09-25T10:56:35.899Z,100207.66
2022-09-25T10:59:04.126Z,100209.31
2022-09-25T11:01:35.885Z,100206.41
2022-09-25T11:04:14.627Z,100214.06
2022-09-25T11:06:46.874Z,100196.78
2022-09-25T11:09:17.512Z,100210.59
2022-09-25T11:11:46.990Z,100205.66
2022-09-25T11:14:25.040Z,100206.06
2022-09-25T11:16:57.547Z,100205.22
2022-09-25T11:19:31.482Z,100206.88
2022-09-25T11:22:07.920Z,100205.25
2022-09-25T11:25:03.017Z,100208.56
2022-09-25T11:27:37.769Z,100203.63
2022-09-25T11:30:09.956Z,100208.59
2022-09-25T11:32:51.684Z,100196.66
2022-09-25T11:35:34.608Z,100202.84
2022-09-25T11:38:13.118Z,100193.56
2022-09-25T11:41:07.047Z,100188.03
2022-09-25T11:43:44.410Z,100188.88
2022-09-25T11:46:23.330Z,100196.72
2022-09-25T11:49:01.751Z,100196.50
2022-09-25T11:51:50.455Z,100195.91
2022-09-25T11:54:35.269Z,100196.28
2022-09-25T11:57:11.064Z,100194.19
2022-09-25T11:59:51.710Z,100191.72
2022-09-25T12:02:29.703Z,100196.25
2022-09-25T12:05:16.304Z,100196.25
2022-09-25T12:08:12.146Z,100197.09
2022-09-25T12:10:52.327Z,100188.22
2022-09-25T12:13:27.983Z,100189.66
2022-09-25T12:16:08.570Z,100186.59
2022-09-25T12:19:09.536Z,100179.75
2022-09-25T12:21:44.740Z,100178.09
2022-09-25T12:24:32.638Z,100178.53
2022-09-25T12:27:08.095Z,100186.59
2022-09-25T12:29:50.477Z,100190.09
2022-09-25T12:32:30.059Z,100177.31
2022-09-25T12:35:15.047Z,100188.78
2022-09-25T12:37:46.595Z,100188.78
2022-09-25T12:40:24.297Z,100191.66
2022-09-25T12:42:58.793Z,100184.63
2022-09-25T12:45:32.564Z,100193.69
2022-09-25T12:48:09.827Z,100192.88
2022-09-25T12:50:44.983Z,100200.06
2022-09-25T12:53:24.224Z,100196.19
2022-09-25T12:55:58.744Z,100189.41
2022-09-25T12:58:46.204Z,100186.56
2022-09-25T13:01:22.736Z,100192.75
2022-09-25T13:03:59.263Z,100189.25
2022-09-25T13:06:40.782Z,100190.06
2022-09-25T13:09:18.370Z,100193.78
2022-09-25T13:11:51.932Z,100191.72
2022-09-25T13:14:34.643Z,100195.00
2022-09-25T13:17:02.733Z,100190.06
2022-09-25T13:19:33.035Z,100190.84
2022-09-25T13:22:04.634Z,100197.25
2022-09-25T13:24:42.401Z,100202.81
2022-09-25T13:27:18.845Z,100203.63
2022-09-25T13:29:54.291Z,100196.81
2022-09-25T13:32:24.450Z,100208.09
2022-09-25T13:34:57.807Z,100206.69
2022-09-25T13:37:29.632Z,100211.22
2022-09-25T13:40:15.112Z,100219.25
2022-09-25T13:42:46.491Z,100215.06
2022-09-25T13:45:33.494Z,100210.50
2022-09-25T13:48:09.592Z,100214.34
2022-09-25T13:50:39.700Z,100209.75
2022-09-25T13:53:25.720Z,100214.53
2022-09-25T13:56:19.532Z,100221.97
2022-09-25T13:59:16.573Z,100220.31
2022-09-25T14:01:45.989Z,100217.41
2022-09-25T14:04:28.928Z,100220.09
2022-09-25T14:07:04.515Z,100214.72
2022-09-25T14:09:33.840Z,100212.88
2022-09-25T14:12:10.051Z,100214.72
2022-09-25T14:14:52.566Z,100209.38
2022-09-25T14:17:21.919Z,100212.88
2022-09-25T14:19:52.451Z,100204.66
2022-09-25T14:22:28.600Z,100208.94
2022-09-25T14:24:56.414Z,100207.06
2022-09-25T14:27:27.801Z,100209.56
2022-09-25T14:30:07.303Z,100206.69
2022-09-25T14:33:01.257Z,100209.38
2022-09-25T14:35:36.500Z,100208.34
2022-09-25T14:38:26.609Z,100201.13
2022-09-25T14:41:10.040Z,100208.69
2022-09-25T14:43:52.002Z,100206.84
2022-09-25T14:46:22.610Z,100201.88
2022-09-25T14:48:54.229Z,100203.72
2022-09-25T14:51:25.904Z,100200.84
2022-09-25T14:53:56.351Z,100200.84
2022-09-25T14:56:25.335Z,100203.31
2022-09-25T14:58:58.491Z,100205.56
2022-09-25T15:01:30.322Z,100199.59
2022-09-25T15:04:01.105Z,100196.50
2022-09-25T15:06:31.742Z,100199.19
2022-09-25T15:09:01.745Z,100193.41
2022-09-25T15:11:40.693Z,100191.94
2022-09-25T15:14:12.863Z,100190.47
2022-09-25T15:17:01.844Z,100188.63
2022-09-25T15:19:34.129Z,100189.28
2022-09-25T15:22:02.073Z,100188.91
2022-09-25T15:24:32.748Z,100185.56
2022-09-25T15:27:05.112Z,100188.91
2022-09-25T15:29:36.523Z,100192.59
2022-09-25T15:32:07.035Z,100194.25
2022-09-25T15:34:35.153Z,100196.50
2022-09-25T15:37:18.798Z,100197.53
2022-09-25T15:39:46.392Z,100194.25
2022-09-25T15:42:14.994Z,100200.22
2022-09-25T15:44:43.128Z,100192.19
2022-09-25T15:47:49.743Z,100184.78
2022-09-25T15:50:23.769Z,100183.13
2022-09-25T15:52:53.758Z,100184.78
2022-09-25T15:55:22.216Z,100192.19
2022-09-25T15:57:52.150Z,100185.38
2022-09-25T16:00:39.781Z,100189.28
2022-09-25T16:03:34.539Z,100194.63
2022-09-25T16:06:03.706Z,100191.69
2022-09-25T16:08:33.536Z,100203.44
2022-09-25T16:11:13.700Z,100194.59
2022-09-25T16:13:43.597Z,100190.25
2022-09-25T16:16:22.961Z,100189.41
2022-09-25T16:18:54.455Z,100198.47
2022-09-25T16:21:27.359Z,100190.44
2022-09-25T16:23:58.437Z,100192.94
2022-09-25T16:26:31.008Z,100190.88
2022-09-25T16:29:06.511Z,100193.75
2022-09-25T16:31:36.403Z,100192.94
2022-09-25T16:34:08.512Z,100188.41
2022-09-25T16:36:41.576Z,100189.41
2022-09-25T16:39:23.847Z,100189.41
2022-09-25T16:41:52.074Z,100186.28
2022-09-25T16:44:22.052Z,100188.97
2022-09-25T16:47:06.353Z,100199.03
2022-09-25T16:49:35.803Z,100198.84
2022-09-25T16:52:08.414Z,100192.88
2022-09-25T16:54:38.965Z,100195.56
2022-09-25T16:57:06.675Z,100196.09
2022-09-25T16:59:34.354Z,100196.09
2022-09-25T17:02:12.177Z,100196.28
2022-09-25T17:04:41.197Z,100198.53
2022-09-25T17:07:09.530Z,100195.41
2022-09-25T17:09:37.144Z,100201.06
2022-09-25T17:12:12.325Z,100205.97
2022-09-25T17:14:40.136Z,100204.91
2022-09-25T17:17:07.734Z,100211.09
2022-09-25T17:19:35.349Z,100214.78
2022-09-25T17:22:04.327Z,100211.47
2022-09-25T17:24:31.910Z,100210.63
2022-09-25T17:26:59.528Z,100213.50
2022-09-25T17:29:27.439Z,100209.63
2022-09-25T17:31:55.100Z,100205.47
2022-09-25T17:34:28.227Z,100205.47
2022-09-25T17:36:56.426Z,100210.41
2022-09-25T17:39:25.352Z,100208.91
2022-09-25T17:41:53.095Z,100203.09
2022-09-25T17:44:23.605Z,100208.69
2022-09-25T17:46:52.017Z,100206.63
2022-09-25T17:49:19.736Z,100210.31
2022-09-25T17:51:47.630Z,100214.66
2022-09-25T17:54:17.244Z,100219.16
2022-09-25T17:56:46.360Z,100221.66
2022-09-25T17:59:15.131Z,100219.16
2022-09-25T18:01:42.936Z,100224.34
2022-09-25T18:04:20.217Z,100227.41
2022-09-25T18:06:48.252Z,100228.78
2022-09-25T18:09:15.981Z,100230.09
2022-09-25T18:11:44.798Z,100222.69
2022-09-25T18:14:15.747Z,100225.34
2022-09-25T18:16:44.790Z,100221.84
2022-09-25T18:19:34.659Z,100234.19
2022-09-25T18:22:25.254Z,100230.09
2022-09-25T18:24:56.579Z,100224.72
2022-09-25T18:27:26.249Z,100219.94
2022-09-25T18:29:55.640Z,100223.00
2022-09-25T18:32:24.041Z,100225.88
2022-09-25T18:34:51.834Z,100220.91
2022-09-25T18:37:19.613Z,100225.88
2022-09-25T18:39:48.021Z,100222.81
2022-09-25T18:42:15.725Z,100223.81
2022-09-25T18:44:43.457Z,100218.88
2022-09-25T18:47:12.743Z,100218.88
2022-09-25T18:49:40.399Z,100220.06
2022-09-25T18:52:07.991Z,100220.44
2022-09-25T18:54:35.846Z,100222.09
2022-09-25T18:57:03.545Z,100218.41
2022-09-25T18:59:31.283Z,100222.56
2022-09-25T19:01:59.988Z,100220.44
2022-09-25T19:04:29.543Z,100221.72
2022-09-25T19:06:57.554Z,100227.09
2022-09-25T19:09:27.596Z,100220.06
2022-09-25T19:11:55.439Z,100226.44
2022-09-25T19:14:24.048Z,100226.44
2022-09-25T19:16:53.081Z,100229.06
2022-09-25T19:19:21.053Z,100227.16
2022-09-25T19:21:50.037Z,100231.84
2022-09-25T19:24:18.665Z,100228.16
2022-09-25T19:26:47.984Z,100229.00
2022-09-25T19:29:15.728Z,100226.09
2022-09-25T19:31:43.542Z,100234.78
2022-09-25T19:34:11.321Z,100236.06
2022-09-25T19:36:39.118Z,100237.25
2022-09-25T19:39:08.042Z,100243.81
2022-09-25T19:41:38.082Z,100242.16
2022-09-25T19:44:13.290Z,100238.41
2022-09-25T19:46:42.195Z,100237.03
2022-09-25T19:49:10.096Z,100236.91
2022-09-25T19:51:38.191Z,100233.09
2022-09-25T19:54:07.493Z,100234.09
2022-09-25T19:56:40.426Z,100230.25
2022-09-25T19:59:08.795Z,100240.97
2022-09-25T20:01:36.557Z,100238.66
2022-09-25T20:04:08.200Z,100235.16
2022-09-25T20:06:37.884Z,100237.94
2022-09-25T20:09:06.744Z,100235.69
2022-09-25T20:11:36.602Z,100234.88
2022-09-25T20:14:07.450Z,100234.22
2022-09-25T20:16:37.294Z,100236.72
2022-09-25T20:19:07.702Z,100228.88
2022-09-25T20:21:37.232Z,100237.53
2022-09-25T20:24:07.356Z,100234.22
2022-09-25T20:26:36.708Z,100233.03
2022-09-25T20:29:08.637Z,100232.19
2022-09-25T20:31:38.250Z,100240.03
2022-09-25T20:34:06.519Z,100238.84
2022-09-25T20:36:36.218Z,100223.63
2022-09-25T20:39:03.808Z,100236.78
2022-09-25T20:41:31.449Z,100234.44
2022-09-25T20:44:00.560Z,100220.69
2022-09-25T20:46:29.879Z,100221.63
2022-09-25T20:48:59.570Z,100226.97
2022-09-25T20:51:29.720Z,100222.53
2022-09-25T20:53:59.350Z,100223.00
2022-09-25T20:56:27.959Z,100218.41
2022-09-25T20:58:56.935Z,100229.09
2022-09-25T21:01:27.888Z,100227.50
2022-09-25T21:03:55.708Z,100223.25
2022-09-25T21:06:25.335Z,100219.13
2022-09-25T21:08:54.141Z,100215.63
2022-09-25T21:11:22.316Z,100214.91
2022-09-25T21:13:51.651Z,100216.44
2022-09-25T21:16:20.835Z,100207.50
2022-09-25T21:18:54.090Z,100211.00
2022-09-25T21:21:21.866Z,100207.03
2022-09-25T21:23:51.523Z,100203.75
2022-09-25T21:26:19.574Z,100209.00
2022-09-25T21:28:52.251Z,100201.91
2022-09-25T21:31:22.274Z,100201.78
2022-09-25T21:33:53.665Z,100196.09
2022-09-25T21:36:22.006Z,100195.81
2022-09-25T21:38:50.136Z,100196.19
2022-09-25T21:41:20.116Z,100202.44
2022-09-25T21:43:48.156Z,100189.38
2022-09-25T21:46:18.204Z,100192.97
2022-09-25T21:48:49.967Z,100191.78
2022-09-25T21:51:21.047Z,100197.75
2022-09-25T21:53:49.039Z,100186.88
2022-09-25T21:56:18.739Z,100187.81
2022-09-25T21:58:47.473Z,100189.66
2022-09-25T22:01:17.143Z,100187.16
2022-09-25T22:03:48.035Z,100184.00
2022-09-25T22:06:17.514Z,100188.78
2022-09-25T22:08:50.980Z,100185.94
2022-09-25T22:11:20.035Z,100199.53
2022-09-25T22:13:49.162Z,100199.59
2022-09-25T22:16:20.042Z,100191.31
2022-09-25T22:18:49.699Z,100190.59
2022-09-25T22:21:19.441Z,100190.34
2022-09-25T22:23:48.630Z,100186.75
2022-09-25T22:26:17.666Z,100189.69
2022-09-25T22:28:46.198Z,100194.41
2022-09-25T22:31:16.176Z,100191.63
2022-09-25T22:33:44.115Z,100185.81
2022-09-25T22:36:13.127Z,100196.94
2022-09-25T22:38:41.141Z,100183.69
2022-09-25T22:41:11.990Z,100192.31
2022-09-25T22:43:40.429Z,100187.28
2022-09-25T22:46:09.593Z,100189.72
2022-09-25T22:48:37.985Z,100190.09
2022-09-25T22:51:07.636Z,100191.59
2022-09-25T22:53:36.946Z,100181.38
2022-09-25T22:56:15.304Z,100179.03
2022-09-25T22:58:44.048Z,100177.53
2022-09-25T23:01:14.230Z,100171.13
2022-09-25T23:03:41.845Z,100165.16
2022-09-25T23:06:09.646Z,100161.09
2022-09-25T23:08:37.963Z,100166.75
2022-09-25T23:11:08.340Z,100166.56
2022-09-25T23:13:37.803Z,100168.53
2022-09-25T23:16:07.092Z,100166.97
2022-09-25T23:18:35.190Z,100162.19
2022-09-25T23:21:03.359Z,100161.97
2022-09-25T23:23:31.385Z,100160.34
2022-09-25T23:26:03.295Z,100155.47
2022-09-25T23:28:33.266Z,100152.97
2022-09-25T23:31:08.243Z,100146.19
2022-09-25T23:33:36.890Z,100147.00
2022-09-25T23:36:06.578Z,100151.50
2022-09-25T23:38:34.883Z,100148.00
2022-09-25T23:41:02.688Z,100143.75
2022-09-25T23:43:30.329Z,100141.25
2022-09-25T23:45:57.957Z,100150.69
2022-09-25T23:48:26.902Z,100154.06
2022-09-25T23:50:54.486Z,100144.19
2022-09-25T23:53:22.109Z,100147.63
2022-09-25T23:55:49.666Z,100147.00
2022-09-25T23:58:18.014Z,100145.88
